Latest Coastal Weather Observations for Red Rocks Point

IDW60701

Issued at 4:43 am WST Tuesday 27 September 2016 (issued every 10 minutes, with the page automatically refreshed every 10 minutes)

About coastal observations | Map of coastal stations | Coastal observations for WA | Marine services | Other Formats
Station Details ID: 011053 Name: RED ROCKS POINT Lat: -32.20 Lon: 127.53 Height: 3.1 m
Data from the previous 72 hours. | See also: Recent months at Red Rocks Point
Date/Time
WST
Temp
°C
Wind Pressure Rain since
9am
mm
Weather Cloud Vis
km
Sea
Height
m
Swell
Dir  Spd
kts
Gust
kts
hPa Trend Height
m
Period
s
Dir
27/04:30am 6.4 N 10 13 1014.5 - 0.0 - - - - - - -
27/04:00am 6.6 N 11 14 1014.5 - 0.0 - - - - - - -
27/03:30am 6.3 N 10 15 1014.4 - 0.0 - - - - - - -
27/03:00am 6.1 N 10 13 1014.5 - 0.0 - - - - - - -
27/02:30am 6.6 N 11 15 1014.4 - 0.0 - - - - - - -
27/02:00am 7.0 N 11 15 1014.7 - 0.0 - - - - - - -
27/01:30am 7.2 N 11 14 1014.9 - 0.0 - - - - - - -
27/01:00am 7.3 N 11 14 1015.1 - 0.0 - - - - - - -
27/12:30am 7.6 N 10 15 1015.4 - 0.0 - - - - - - -
27/12:00am 7.7 N 10 14 1015.9 - 0.0 - - - - - - -
 
Date/Time
WST
Temp
°C
Wind Pressure Rain since
9am
mm
Weather Cloud Vis
km
Sea
Height
m
Swell
Dir  Spd
kts
Gust
kts
hPa Trend Height
m
Period
s
Dir
26/11:30pm 7.4 N 8 11 1016.5 - 0.0 - - - - - - -
26/11:00pm 7.5 N 8 10 1016.7 - 0.0 - - - - - - -
26/10:30pm 8.6 N 9 12 1017.1 - 0.0 - - - - - - -
26/10:00pm 8.4 N 9 11 1017.3 - 0.0 - - - - - - -
26/09:30pm 8.8 NNE 8 10 1017.6 - 0.0 - - - - - - -
26/09:00pm 9.0 NNE 9 11 1017.6 - 0.0 - - - - - - -
26/08:30pm 8.6 N 7 9 1017.8 - 0.0 - - - - - - -
26/08:00pm 9.9 NNE 5 7 1017.8 - 0.0 - - - - - - -
26/07:30pm 13.4 E 8 9 1017.4 - 0.0 - - - - - - -
26/07:00pm 13.3 ESE 8 9 1017.3 - 0.0 - - - - - - -
26/06:30pm 13.1 ESE 7 8 1017.1 - 0.0 - - - - - - -
26/06:00pm 13.1 SE 6 7 1016.7 - 0.0 - - - - - - -
26/05:30pm 13.2 SSE 7 8 1016.6 - 0.0 - - - - - - -
26/05:00pm 13.6 SSE 6 7 1016.6 - 0.0 - - - - - - -
26/04:30pm 14.3 SE 6 7 1016.3 - 0.0 - - - - - - -
26/04:00pm 14.9 S 7 9 1016.4 - 0.0 - - - - - - -
26/03:30pm 14.9 SSE 9 10 1016.4 - 0.0 - - - - - - -
26/03:00pm 15.5 S 10 13 1016.2 - 0.0 - - - - - - -
26/02:30pm 16.1 SSW 12 16 1016.2 - 0.0 - - - - - - -
26/02:00pm 16.6 SSW 13 17 1016.2 - 0.0 - - - - - - -
26/01:30pm 16.5 SSW 13 17 1016.3 - 0.0 - - - - - - -
26/01:00pm 16.6 SW 12 16 1016.7 - 0.0 - - - - - - -
26/12:30pm 17.0 SW 13 17 1017.3 - 0.0 - - - - - - -
26/12:00pm 16.9 SSW 12 17 1017.6 - 0.0 - - - - - - -
26/11:30am 16.8 SSW 12 17 1017.8 - 0.0 - - - - - - -
26/11:00am 17.2 SSW 12 15 1018.2 - 0.0 - - - - - - -
26/10:30am 16.9 SSW 10 14 1018.5 - 0.0 - - - - - - -
26/10:00am 16.6 SSW 10 14 1018.5 - 0.0 - - - - - - -
26/09:30am 16.4 SSW 10 13 1018.7 - 0.0 - - - - - - -
26/09:00am 15.9 SSW 8 11 1018.8 - 0.0 - - - - - - -
26/08:30am 15.4 S 9 11 1018.7 - 0.0 - - - - - - -
26/08:00am 15.3 SW 10 13 1018.8 - 0.0 - - - - - - -
26/07:30am 13.6 SW 11 15 1018.6 - 0.0 - - - - - - -
26/07:00am 14.2 SW 9 12 1018.3 - 0.0 - - - - - - -
26/06:30am 13.2 SW 9 13 1018.0 - 0.0 - - - - - - -
26/06:00am 12.5 SW 10 16 1017.6 - 0.0 - - - - - - -
26/05:30am 11.8 SW 11 16 1017.2 - 0.0 - - - - - - -
26/05:00am 11.4 SSW 8 11 1016.9 - 0.0 - - - - - - -
26/04:30am 11.3 SSW 9 14 1016.8 - 0.0 - - - - - - -
26/04:00am 11.5 SSW 11 16 1016.6 - 0.0 - - - - - - -
26/03:30am 11.8 SSW 12 16 1016.4 - 0.0 - - - - - - -
26/03:00am 11.8 SSW 12 18 1016.2 - 0.0 - - - - - - -
26/02:30am 12.3 SSW 14 19 1016.1 - 0.0 - - - - - - -
26/02:00am 12.0 SW 12 17 1016.2 - 0.0 - - - - - - -
26/01:30am 12.2 SSW 14 20 1016.4 - 0.0 - - - - - - -
26/01:00am 12.3 SSW 13 19 1016.6 - 0.0 - - - - - - -
26/12:30am 12.6 SSW 13 18 1016.7 - 0.0 - - - - - - -
26/12:00am 12.6 SSW 16 21 1016.9 - 0.0 - - - - - - -
 
Date/Time
WST
Temp
°C
Wind Pressure Rain since
9am
mm
Weather Cloud Vis
km
Sea
Height
m
Swell
Dir  Spd
kts
Gust
kts
hPa Trend Height
m
Period
s
Dir
25/11:30pm 12.8 SSW 15 21 1016.9 - 0.0 - - - - - - -
25/11:00pm 13.2 SSW 15 21 1016.8 - 0.0 - - - - - - -
25/10:30pm 13.3 SSW 14 20 1016.9 - 0.0 - - - - - - -
25/10:00pm 13.3 SSW 15 22 1016.9 - 0.0 - - - - - - -
25/09:30pm 13.2 SSW 14 21 1016.8 - 0.0 - - - - - - -
25/09:00pm 13.3 SSW 17 23 1016.7 - 0.0 - - - - - - -
25/08:30pm 13.7 SSW 17 24 1016.5 - 0.0 - - - - - - -
25/08:11pm 13.7 SSW 18 28 1016.3 - 0.0 - - - - - - -
25/08:00pm 13.9 SSW 17 25 1016.2 - 0.0 - - - - - - -
25/07:30pm 14.2 SSW 18 24 1015.7 - 0.0 - - - - - - -
25/07:01pm 14.9 SW 19 29 1015.3 - 0.0 - - - - - - -
25/07:00pm 15.0 SW 18 26 1015.2 - 0.0 - - - - - - -
25/06:47pm 15.0 SSW 15 25 1014.8 - 0.0 - - - - - - -
25/06:30pm 14.7 SW 11 17 1014.4 - 0.0 - - - - - - -
25/06:00pm 14.4 SSW 8 11 1013.6 - 0.0 - - - - - - -
25/05:30pm 14.9 SSW 10 14 1012.8 - 0.0 - - - - - - -
25/05:00pm 15.7 SSW 10 14 1012.4 - 0.0 - - - - - - -
25/04:30pm 16.5 SSW 14 18 1011.7 - 0.0 - - - - - - -
25/04:00pm 17.7 SSW 15 21 1011.0 - 0.0 - - - - - - -
25/03:58pm 17.7 SSW 15 21 1011.0 - 0.0 - - - - - - -
25/03:30pm 19.2 S 7 10 1010.2 - 0.0 - - - - - - -
25/03:00pm 18.7 SSE 9 11 1009.5 - 0.0 - - - - - - -
25/02:30pm 20.7 S 8 11 1009.0 - 0.0 - - - - - - -
25/02:00pm 25.7 NW 13 23 1008.7 - 0.0 - - - - - - -
25/01:30pm 25.1 NW 13 21 1009.1 - 0.0 - - - - - - -
25/01:00pm 24.8 NW 14 24 1009.6 - 0.0 - - - - - - -
25/12:30pm 24.1 NW 10 21 1010.1 - 0.0 - - - - - - -
25/12:00pm 24.7 NW 10 18 1010.7 - 0.0 - - - - - - -
25/11:30am 23.7 NW 10 19 1011.3 - 0.0 - - - - - - -
25/11:00am 22.8 NNW 11 19 1012.1 - 0.0 - - - - - - -
25/10:30am 22.7 NNW 12 17 1012.5 - 0.0 - - - - - - -
25/10:00am 21.3 N 11 17 1013.1 - 0.0 - - - - - - -
25/09:30am 19.9 N 13 21 1013.7 - 0.0 - - - - - - -
25/09:00am 18.9 N 13 20 1013.9 - 0.0 - - - - - - -
25/08:30am 17.2 N 15 23 1014.1 - 0.0 - - - - - - -
25/08:00am 15.6 N 15 21 1014.3 - 0.0 - - - - - - -
25/07:30am 13.7 N 13 18 1014.3 - 0.0 - - - - - - -
25/07:00am 10.7 N 11 17 1014.4 - 0.0 - - - - - - -
25/06:30am 8.4 N 11 16 1014.3 - 0.0 - - - - - - -
25/06:00am 6.8 N 11 15 1014.4 - 0.0 - - - - - - -
25/05:30am 5.2 N 11 15 1014.4 - 0.0 - - - - - - -
25/05:00am 5.1 N 10 13 1014.3 - 0.0 - - - - - - -
25/04:30am 5.3 N 10 14 1014.3 - 0.0 - - - - - - -
25/04:00am 5.2 N 10 13 1014.3 - 0.0 - - - - - - -
25/03:30am 5.4 N 10 14 1014.2 - 0.0 - - - - - - -
25/03:00am 5.1 N 9 12 1014.3 - 0.0 - - - - - - -
25/02:30am 5.2 N 9 11 1014.3 - 0.0 - - - - - - -
25/02:00am 5.5 N 9 11 1014.6 - 0.0 - - - - - - -
25/01:30am 6.1 N 9 11 1014.9 - 0.0 - - - - - - -
25/01:00am 6.1 N 9 11 1015.2 - 0.0 - - - - - - -
25/12:30am 6.1 N 9 11 1015.3 - 0.0 - - - - - - -
25/12:00am 5.8 N 9 11 1015.6 - 0.0 - - - - - - -
 
Date/Time
WST
Temp
°C
Wind Pressure Rain since
9am
mm
Weather Cloud Vis
km
Sea
Height
m
Swell
Dir  Spd
kts
Gust
kts
hPa Trend Height
m
Period
s
Dir
24/11:30pm 6.3 N 10 12 1015.9 - 0.0 - - - - - - -
24/11:00pm 6.8 N 9 12 1016.1 - 0.0 - - - - - - -
24/10:30pm 7.2 N 9 11 1016.5 - 0.0 - - - - - - -
24/10:00pm 7.4 N 9 11 1016.6 - 0.0 - - - - - - -
24/09:30pm 7.5 N 7 9 1016.7 - 0.0 - - - - - - -
24/09:00pm 8.6 N 6 7 1016.7 - 0.0 - - - - - - -
24/08:30pm 12.7 E 9 10 1016.5 - 0.0 - - - - - - -
24/08:00pm 12.6 ESE 9 11 1016.4 - 0.0 - - - - - - -
24/07:30pm 12.7 SE 9 11 1016.4 - 0.0 - - - - - - -
24/07:00pm 12.8 SE 9 10 1016.3 - 0.0 - - - - - - -
24/06:30pm 12.7 SSE 9 11 1015.9 - 0.0 - - - - - - -
24/06:00pm 12.5 S 10 11 1015.8 - 0.0 - - - - - - -
24/05:30pm 12.5 S 10 12 1015.3 - 0.0 - - - - - - -
24/05:00pm 12.9 S 11 13 1015.1 - 0.0 - - - - - - -
24/04:30pm 13.5 SSW 11 14 1015.2 - 0.0 - - - - - - -
24/04:00pm 14.2 SSW 11 15 1015.2 - 0.0 - - - - - - -
24/03:30pm 14.8 SSW 13 16 1015.2 - 0.0 - - - - - - -
24/03:00pm 15.5 SSW 13 18 1015.0 - 0.0 - - - - - - -
24/02:30pm 15.8 SSW 13 18 1014.9 - 0.0 - - - - - - -
24/02:00pm 15.9 SW 14 18 1015.2 - 0.0 - - - - - - -
24/01:30pm 16.1 SW 14 20 1015.1 - 0.0 - - - - - - -
24/01:00pm 15.7 SW 13 19 1015.3 - 0.0 - - - - - - -
24/12:30pm 16.1 SW 13 17 1015.7 - 0.0 - - - - - - -
24/12:00pm 15.7 SW 13 17 1015.6 - 0.0 - - - - - - -
24/11:30am 16.0 SW 11 15 1015.8 - 0.0 - - - - - - -
24/11:00am 16.3 SW 10 14 1016.0 - 0.0 - - - - - - -
24/10:30am 15.1 SW 9 12 1016.0 - 0.0 - - - - - - -
24/10:00am 13.8 SW 12 18 1016.3 - 0.0 - - - - - - -
24/09:30am 14.7 SW 10 14 1016.2 - 0.0 - - - - - - -
24/09:00am 13.7 SW 13 19 1016.2 - 2.8 - - - - - - -
24/08:30am 13.4 SW 12 18 1015.9 - 2.8 - - - - - - -
24/08:00am 12.3 W 8 11 1015.5 - 2.8 - - - - - - -
24/07:30am 10.6 WSW 9 15 1015.1 - 2.8 - - - - - - -
24/07:00am 9.3 WNW 7 11 1014.8 - 2.6 - - - - - - -
24/06:30am 9.9 WSW 11 21 1014.6 - 1.6 - - - - - - -
24/06:00am 9.1 WNW 7 10 1013.8 - 1.4 Recent precip. - - - - - -
24/05:30am 8.9 WNW 9 11 1013.3 - 1.4 - - - - - - -
24/05:00am 9.6 W 7 10 1012.7 - 0.0 - - - - - - -

Other Formats:

Comma delimited format used in spreadsheet applications
http://www.bom.gov.au/fwo/IDW60701/IDW60701.94644.axf

JavaScript Object Notation format (JSON) in row-major order
http://www.bom.gov.au/fwo/IDW60701/IDW60701.94644.json